createdAt,value
2023-03-02T00:02:13.544Z,22.75
2023-03-02T00:04:53.419Z,23.83
2023-03-02T00:07:25.717Z,27.35
2023-03-02T00:09:53.338Z,25.05
2023-03-02T00:12:20.085Z,26.25
2023-03-02T00:14:46.796Z,24.10
2023-03-02T00:17:13.504Z,26.80
2023-03-02T00:19:40.286Z,24.23
2023-03-02T00:22:07.570Z,25.90
2023-03-02T00:24:34.441Z,29.60
2023-03-02T00:27:01.108Z,25.05
2023-03-02T00:29:27.854Z,24.75
2023-03-02T00:31:54.787Z,27.75
2023-03-02T00:34:21.488Z,27.83
2023-03-02T00:36:49.499Z,24.40
2023-03-02T00:39:19.922Z,23.52
2023-03-02T00:41:47.292Z,24.15
2023-03-02T00:44:17.524Z,26.77
2023-03-02T00:46:45.206Z,27.77
2023-03-02T00:49:12.684Z,23.77
2023-03-02T00:51:39.287Z,28.15
2023-03-02T00:54:06.167Z,30.40
2023-03-02T00:56:33.211Z,28.95
2023-03-02T00:59:05.694Z,27.65
2023-03-02T01:01:32.729Z,25.83
2023-03-02T01:03:59.309Z,22.58
2023-03-02T01:06:26.083Z,25.65
2023-03-02T01:08:52.714Z,26.13
2023-03-02T01:11:21.956Z,24.38
2023-03-02T01:13:50.102Z,24.58
2023-03-02T01:16:17.436Z,28.02
2023-03-02T01:18:44.163Z,29.30
2023-03-02T01:21:13.218Z,26.63
2023-03-02T01:23:40.051Z,25.15
2023-03-02T01:26:07.389Z,27.73
2023-03-02T01:28:34.059Z,28.55
2023-03-02T01:31:02.629Z,28.83
2023-03-02T01:33:29.442Z,28.17
2023-03-02T01:35:56.151Z,30.13
2023-03-02T01:38:22.780Z,24.08
2023-03-02T01:40:49.388Z,26.52
2023-03-02T01:43:18.020Z,27.67
2023-03-02T01:46:21.813Z,28.55
2023-03-02T01:49:10.242Z,27.20
2023-03-02T01:51:45.109Z,26.83
2023-03-02T01:54:22.943Z,26.42
2023-03-02T01:56:53.055Z,26.33
2023-03-02T01:59:22.337Z,24.75
2023-03-02T02:01:53.786Z,25.60
2023-03-02T02:04:23.256Z,23.52
2023-03-02T02:07:03.334Z,29.35
2023-03-02T02:09:39.209Z,24.02
2023-03-02T02:12:06.052Z,29.17
2023-03-02T02:14:32.779Z,26.48
2023-03-02T02:16:59.424Z,27.05
2023-03-02T02:20:07.298Z,24.67
2023-03-02T02:23:11.970Z,29.80
2023-03-02T02:26:18.369Z,25.05
2023-03-02T02:28:58.202Z,22.08
2023-03-02T02:34:17.420Z,32.53
2023-03-02T02:36:47.988Z,25.88
2023-03-02T02:39:29.086Z,27.00
2023-03-02T02:41:59.399Z,26.33
2023-03-02T02:44:26.333Z,25.13
2023-03-02T02:46:52.967Z,28.38
2023-03-02T02:49:35.406Z,30.25
2023-03-02T02:52:03.864Z,28.88
2023-03-02T02:54:32.877Z,30.70
2023-03-02T02:57:02.462Z,29.00
2023-03-02T02:59:33.935Z,26.88
2023-03-02T03:02:01.258Z,31.58
2023-03-02T03:04:31.106Z,33.63
2023-03-02T03:07:03.963Z,22.90
2023-03-02T03:09:31.845Z,31.02
2023-03-02T03:12:04.927Z,26.13
2023-03-02T03:14:36.803Z,30.80
2023-03-02T03:17:03.443Z,40.58
2023-03-02T03:19:32.628Z,33.78
2023-03-02T03:22:01.397Z,32.30
2023-03-02T03:24:30.351Z,25.97
2023-03-02T03:26:57.368Z,33.17
2023-03-02T03:29:27.100Z,30.10
2023-03-02T03:34:22.705Z,27.60
2023-03-02T03:36:49.422Z,32.25
2023-03-02T03:39:17.324Z,30.77
2023-03-02T03:41:44.365Z,33.40
2023-03-02T03:44:11.694Z,26.45
2023-03-02T03:46:38.756Z,32.22
2023-03-02T03:49:05.894Z,26.17
2023-03-02T03:51:35.142Z,30.58
2023-03-02T03:54:04.387Z,25.83
2023-03-02T03:56:34.565Z,25.02
2023-03-02T03:59:09.126Z,32.22
2023-03-02T04:01:41.905Z,35.90
2023-03-02T04:04:16.573Z,30.00
2023-03-02T04:06:43.579Z,31.23
2023-03-02T04:09:12.263Z,29.85
2023-03-02T04:11:41.094Z,27.50
2023-03-02T04:14:08.519Z,28.27
2023-03-02T04:16:36.070Z,24.75
2023-03-02T04:19:03.123Z,29.35
2023-03-02T04:21:30.130Z,30.08
2023-03-02T04:23:56.727Z,28.35
2023-03-02T04:26:23.452Z,24.80
2023-03-02T04:28:50.878Z,25.55
2023-03-02T04:31:18.082Z,26.60
2023-03-02T04:33:45.247Z,23.48
2023-03-02T04:36:12.079Z,27.58
2023-03-02T04:38:39.125Z,28.17
2023-03-02T04:41:06.163Z,31.60
2023-03-02T04:43:32.854Z,25.05
2023-03-02T04:45:59.684Z,27.52
2023-03-02T04:48:26.324Z,28.02
2023-03-02T04:50:53.025Z,25.35
2023-03-02T04:53:19.674Z,22.95
2023-03-02T04:55:47.246Z,23.73
2023-03-02T04:58:13.974Z,24.83
2023-03-02T05:00:40.738Z,24.92
2023-03-02T05:03:07.422Z,25.00
2023-03-02T05:05:34.240Z,24.95
2023-03-02T05:08:00.954Z,22.52
2023-03-02T05:10:28.084Z,24.02
2023-03-02T05:12:55.234Z,24.45
2023-03-02T05:15:24.177Z,21.45
2023-03-02T05:17:50.967Z,25.23
2023-03-02T05:20:18.263Z,24.42
2023-03-02T05:22:45.182Z,22.67
2023-03-02T05:25:12.490Z,21.65
2023-03-02T05:27:39.263Z,25.00
2023-03-02T05:30:07.293Z,20.98
2023-03-02T05:32:34.110Z,20.83
2023-03-02T05:35:00.734Z,21.40
2023-03-02T05:37:27.402Z,18.73
2023-03-02T05:39:53.989Z,21.15
2023-03-02T05:42:20.609Z,22.80
2023-03-02T05:44:47.272Z,23.08
2023-03-02T05:47:14.066Z,25.30
2023-03-02T05:49:40.803Z,27.52
2023-03-02T05:52:07.469Z,17.67
2023-03-02T05:54:34.146Z,22.45
2023-03-02T05:57:00.849Z,20.65
2023-03-02T05:59:27.519Z,21.10
2023-03-02T06:01:58.720Z,26.13
2023-03-02T06:04:26.076Z,22.08
2023-03-02T06:06:52.734Z,24.83
2023-03-02T06:09:19.409Z,24.70
2023-03-02T06:11:46.116Z,19.73
2023-03-02T06:14:12.696Z,23.67
2023-03-02T06:16:39.530Z,23.65
2023-03-02T06:19:06.449Z,21.58
2023-03-02T06:21:33.397Z,21.55
2023-03-02T06:24:00.069Z,21.40
2023-03-02T06:26:26.706Z,22.70
2023-03-02T06:28:54.097Z,21.48
2023-03-02T06:31:21.729Z,20.90
2023-03-02T06:33:48.648Z,22.75
2023-03-02T06:36:16.978Z,30.00
2023-03-02T06:38:43.799Z,22.80
2023-03-02T06:41:10.411Z,27.27
2023-03-02T06:43:37.142Z,24.85
2023-03-02T06:46:04.139Z,23.40
2023-03-02T06:48:30.832Z,23.13
2023-03-02T06:50:57.461Z,22.98
2023-03-02T06:53:24.194Z,20.63
2023-03-02T06:55:51.398Z,18.30
2023-03-02T06:58:18.118Z,21.20
2023-03-02T07:00:44.735Z,19.02
2023-03-02T07:03:11.648Z,23.60
2023-03-02T07:05:38.311Z,19.05
2023-03-02T07:08:05.355Z,20.83
2023-03-02T07:10:33.142Z,19.88
2023-03-02T07:12:59.863Z,22.20
2023-03-02T07:15:26.614Z,20.30
2023-03-02T07:17:53.247Z,19.67
2023-03-02T07:20:20.146Z,21.83
2023-03-02T07:22:46.921Z,20.80
2023-03-02T07:25:13.974Z,21.30
2023-03-02T07:27:40.918Z,17.40
2023-03-02T07:30:08.524Z,19.75
2023-03-02T07:32:35.221Z,21.17
2023-03-02T07:35:02.074Z,17.88
2023-03-02T07:37:28.757Z,22.02
2023-03-02T07:39:55.488Z,22.38
2023-03-02T07:42:22.421Z,22.05
2023-03-02T07:44:49.043Z,17.00
2023-03-02T07:47:15.675Z,17.88
2023-03-02T07:49:42.339Z,20.75
2023-03-02T07:52:09.057Z,20.23
2023-03-02T07:54:35.895Z,23.83
2023-03-02T07:57:02.643Z,19.13
2023-03-02T07:59:29.468Z,20.45
2023-03-02T08:01:56.965Z,17.48
2023-03-02T08:04:24.301Z,17.77
2023-03-02T08:06:50.990Z,20.23
2023-03-02T08:09:17.858Z,21.95
2023-03-02T08:11:45.019Z,16.23
2023-03-02T08:14:11.799Z,16.10
2023-03-02T08:16:39.488Z,18.92
2023-03-02T08:19:06.848Z,14.10
2023-03-02T08:21:33.808Z,19.60
2023-03-02T08:24:00.785Z,15.38
2023-03-02T08:26:27.608Z,19.25
2023-03-02T08:28:54.251Z,17.63
2023-03-02T08:31:20.946Z,20.35
2023-03-02T08:33:47.581Z,17.05
2023-03-02T08:36:17.514Z,16.95
2023-03-02T08:38:45.427Z,23.88
2023-03-02T08:41:18.072Z,14.32
2023-03-02T08:43:44.718Z,17.23
2023-03-02T08:46:13.094Z,15.68
2023-03-02T08:48:40.110Z,21.40
2023-03-02T08:51:09.786Z,19.13
2023-03-02T08:56:07.367Z,16.20
2023-03-02T08:58:34.079Z,15.38
2023-03-02T09:01:00.660Z,20.60
2023-03-02T09:03:27.337Z,17.60
2023-03-02T09:05:54.590Z,15.77
2023-03-02T09:08:21.262Z,17.85
2023-03-02T09:10:47.884Z,16.95
2023-03-02T09:13:14.469Z,19.33
2023-03-02T09:15:41.363Z,16.20
2023-03-02T09:18:07.954Z,16.58
2023-03-02T09:20:34.808Z,20.00
2023-03-02T09:23:01.463Z,17.27
2023-03-02T09:25:28.239Z,17.70
2023-03-02T09:27:54.829Z,19.27
2023-03-02T09:30:21.481Z,16.33
2023-03-02T09:32:49.244Z,13.75
2023-03-02T09:35:16.327Z,18.23
2023-03-02T09:37:44.435Z,16.00
2023-03-02T09:40:32.312Z,16.95
2023-03-02T09:43:16.728Z,16.55
2023-03-02T09:46:23.417Z,16.42
2023-03-02T09:49:14.578Z,16.73
2023-03-02T09:51:50.431Z,15.20
2023-03-02T09:54:21.117Z,19.02
2023-03-02T09:56:52.523Z,14.13
2023-03-02T09:59:29.822Z,15.40
2023-03-02T10:02:15.502Z,13.93
2023-03-02T10:04:49.073Z,13.60
2023-03-02T10:07:27.835Z,14.77
2023-03-02T10:09:57.691Z,12.07
2023-03-02T10:13:06.265Z,14.35
2023-03-02T10:16:01.217Z,12.60
2023-03-02T10:18:43.652Z,18.17
2023-03-02T10:21:13.990Z,17.40
2023-03-02T10:23:48.603Z,18.52
2023-03-02T10:26:26.014Z,16.27
2023-03-02T10:29:18.867Z,15.43
2023-03-02T10:31:47.049Z,13.27
2023-03-02T10:34:14.374Z,15.18
2023-03-02T10:36:44.399Z,17.50
2023-03-02T10:39:15.336Z,12.43
2023-03-02T10:41:49.905Z,15.52
2023-03-02T10:44:39.226Z,12.20
2023-03-02T10:47:08.432Z,13.73
2023-03-02T10:49:39.270Z,14.52
2023-03-02T10:52:18.005Z,10.45
2023-03-02T10:54:44.962Z,18.53
2023-03-02T10:57:32.722Z,10.52
2023-03-02T11:00:04.996Z,12.90
2023-03-02T11:02:36.006Z,17.40
2023-03-02T11:05:17.357Z,14.05
2023-03-02T11:08:11.171Z,13.48
2023-03-02T11:10:55.741Z,15.75
2023-03-02T11:13:35.349Z,21.55
2023-03-02T11:16:03.726Z,19.75
2023-03-02T11:18:48.690Z,13.25
2023-03-02T11:21:21.491Z,17.13
2023-03-02T11:24:10.565Z,12.85
2023-03-02T11:26:59.413Z,15.15
2023-03-02T11:29:45.180Z,11.60
2023-03-02T11:32:18.315Z,11.35
2023-03-02T11:34:51.362Z,11.18
2023-03-02T11:37:23.076Z,15.68
2023-03-02T11:39:55.624Z,14.10
2023-03-02T11:42:33.194Z,17.92
2023-03-02T11:45:19.787Z,13.23
2023-03-02T11:48:02.529Z,12.98
2023-03-02T11:50:33.464Z,14.48
2023-03-02T11:53:04.822Z,13.63
2023-03-02T11:55:37.409Z,10.13
2023-03-02T11:58:05.139Z,13.10
2023-03-02T12:00:38.653Z,12.82
2023-03-02T12:03:10.515Z,12.35
2023-03-02T12:05:39.684Z,15.10
2023-03-02T12:08:28.263Z,12.65
2023-03-02T12:11:34.360Z,13.25
2023-03-02T12:14:05.032Z,16.83
2023-03-02T12:16:42.886Z,13.18
2023-03-02T12:19:28.642Z,20.70
2023-03-02T12:22:02.280Z,9.27
2023-03-02T12:24:31.838Z,16.05
2023-03-02T12:27:06.346Z,10.63
2023-03-02T12:29:48.882Z,8.85
2023-03-02T12:32:26.950Z,14.23
2023-03-02T12:35:09.288Z,16.60
2023-03-02T12:37:57.618Z,12.57
2023-03-02T12:40:44.648Z,13.20
2023-03-02T12:43:32.745Z,10.57
2023-03-02T12:46:25.358Z,14.10
2023-03-02T12:49:15.027Z,15.48
2023-03-02T12:52:00.212Z,11.88
2023-03-02T12:54:32.472Z,13.23
2023-03-02T12:57:16.404Z,14.00
2023-03-02T12:59:50.597Z,15.88
2023-03-02T13:02:21.560Z,15.18
2023-03-02T13:04:55.222Z,18.20
2023-03-02T13:07:28.928Z,20.92
2023-03-02T13:09:58.845Z,19.75
2023-03-02T13:12:28.224Z,18.27
2023-03-02T13:14:57.957Z,18.67
2023-03-02T13:17:29.539Z,16.25
2023-03-02T13:19:58.179Z,13.10
2023-03-02T13:22:25.384Z,16.35
2023-03-02T13:25:02.149Z,12.30
2023-03-02T13:27:29.613Z,15.25
2023-03-02T13:29:56.848Z,16.20
2023-03-02T13:32:36.032Z,14.13
2023-03-02T13:35:03.405Z,14.95
2023-03-02T13:37:39.024Z,18.52
2023-03-02T13:40:30.748Z,15.38
2023-03-02T13:42:57.501Z,16.45
2023-03-02T13:45:28.660Z,18.35
2023-03-02T13:47:57.149Z,14.02
2023-03-02T13:50:28.138Z,13.52
2023-03-02T13:53:01.601Z,15.63
2023-03-02T13:55:28.704Z,20.08
2023-03-02T13:57:56.159Z,17.73
2023-03-02T14:00:30.949Z,13.80
2023-03-02T14:02:57.558Z,14.45
2023-03-02T14:05:32.821Z,17.85
2023-03-02T14:08:00.354Z,18.83
2023-03-02T14:10:27.222Z,18.25
2023-03-02T14:12:58.268Z,19.83
2023-03-02T14:15:25.208Z,18.65
2023-03-02T14:17:51.888Z,17.23
2023-03-02T14:20:19.831Z,16.27
2023-03-02T14:22:47.925Z,14.98
2023-03-02T14:25:15.329Z,18.95
2023-03-02T14:27:43.890Z,20.55
2023-03-02T14:30:17.536Z,22.27
2023-03-02T14:32:44.586Z,16.42
2023-03-02T14:35:13.407Z,17.25
2023-03-02T14:37:46.969Z,18.60
2023-03-02T14:40:28.063Z,15.40
2023-03-02T14:42:54.931Z,18.17
2023-03-02T14:45:22.000Z,20.45
2023-03-02T14:47:48.921Z,19.02
2023-03-02T14:50:19.067Z,18.17
2023-03-02T14:52:49.608Z,22.23
2023-03-02T14:55:25.633Z,20.73
2023-03-02T14:58:00.904Z,17.23
2023-03-02T15:00:27.753Z,23.35
2023-03-02T15:02:54.683Z,16.75
2023-03-02T15:05:21.580Z,19.63
2023-03-02T15:07:49.272Z,20.40
2023-03-02T15:10:21.879Z,21.10
2023-03-02T15:12:48.537Z,23.63
2023-03-02T15:15:15.289Z,17.23
2023-03-02T15:17:42.295Z,16.05
2023-03-02T15:20:15.082Z,16.15
2023-03-02T15:22:41.872Z,18.42
2023-03-02T15:25:08.834Z,21.60
2023-03-02T15:27:35.468Z,21.15
2023-03-02T15:30:02.068Z,16.40
2023-03-02T15:32:28.838Z,19.55
2023-03-02T15:34:55.601Z,17.67
2023-03-02T15:37:22.253Z,15.05
2023-03-02T15:39:53.730Z,16.20
2023-03-02T15:42:20.347Z,19.55
2023-03-02T15:44:47.032Z,16.83
2023-03-02T15:47:13.817Z,16.15
2023-03-02T15:49:40.647Z,20.92
2023-03-02T15:52:07.293Z,14.80
2023-03-02T15:54:33.905Z,14.23
2023-03-02T15:57:00.544Z,15.73
2023-03-02T15:59:29.487Z,14.50
2023-03-02T16:01:59.438Z,11.65
2023-03-02T16:04:27.173Z,17.70
2023-03-02T16:06:54.942Z,12.77
2023-03-02T16:09:22.487Z,13.75
2023-03-02T16:11:50.039Z,14.82
2023-03-02T16:14:16.686Z,12.75
2023-03-02T16:16:45.424Z,12.85
2023-03-02T16:19:14.310Z,13.88
2023-03-02T16:21:41.095Z,13.80
2023-03-02T16:24:08.018Z,9.80
2023-03-02T16:26:37.241Z,11.30
2023-03-02T16:29:05.440Z,10.57
2023-03-02T16:31:33.844Z,12.48
2023-03-02T16:34:03.749Z,9.93
2023-03-02T16:36:30.520Z,10.93
2023-03-02T16:38:57.106Z,10.77
2023-03-02T16:41:24.464Z,8.43
2023-03-02T16:43:53.492Z,9.30
2023-03-02T16:46:21.828Z,10.57
2023-03-02T16:48:49.527Z,9.15
2023-03-02T16:51:17.660Z,10.32
2023-03-02T16:53:44.332Z,9.00
2023-03-02T16:56:12.988Z,9.10
2023-03-02T16:58:41.320Z,8.27
2023-03-02T17:01:09.976Z,11.35
2023-03-02T17:03:36.927Z,9.33
2023-03-02T17:06:06.496Z,8.02
2023-03-02T17:08:33.703Z,10.20
2023-03-02T17:11:00.494Z,6.18
2023-03-02T17:13:27.194Z,8.57
2023-03-02T17:15:54.764Z,11.50
2023-03-02T17:18:21.432Z,7.80
2023-03-02T17:20:52.266Z,10.85
2023-03-02T17:23:19.223Z,6.53
2023-03-02T17:25:45.958Z,7.15
2023-03-02T17:28:14.968Z,14.32
2023-03-02T17:30:42.392Z,10.07
2023-03-02T17:33:09.543Z,9.98
2023-03-02T17:35:36.695Z,7.10
2023-03-02T17:38:03.590Z,9.60
2023-03-02T17:40:30.236Z,8.38
2023-03-02T17:42:57.903Z,7.68
2023-03-02T17:45:26.974Z,9.27
2023-03-02T17:47:55.538Z,7.90
2023-03-02T17:50:23.114Z,7.80
2023-03-02T17:52:49.945Z,7.30
2023-03-02T17:55:17.119Z,7.47
2023-03-02T17:57:43.807Z,12.50
2023-03-02T18:00:14.474Z,9.82
2023-03-02T18:02:41.084Z,6.93
2023-03-02T18:05:10.041Z,7.30
2023-03-02T18:07:37.344Z,7.20
2023-03-02T18:10:05.928Z,8.52
2023-03-02T18:12:32.895Z,9.52
2023-03-02T18:14:59.561Z,10.25
2023-03-02T18:17:26.360Z,6.63
2023-03-02T18:19:53.010Z,7.80
2023-03-02T18:22:21.362Z,6.35
2023-03-02T18:24:48.524Z,10.30
2023-03-02T18:27:15.170Z,10.32
2023-03-02T18:29:41.775Z,10.63
2023-03-02T18:32:09.498Z,9.68
2023-03-02T18:34:36.115Z,14.98
2023-03-02T18:37:03.541Z,7.75
2023-03-02T18:39:30.261Z,8.75
2023-03-02T18:41:56.936Z,8.73
2023-03-02T18:44:27.889Z,6.90
2023-03-02T18:46:55.351Z,9.63
2023-03-02T18:49:22.245Z,8.98
2023-03-02T18:51:48.896Z,10.85
2023-03-02T18:54:15.909Z,11.32
2023-03-02T18:56:42.500Z,7.88
2023-03-02T18:59:09.671Z,8.90
2023-03-02T19:01:36.392Z,7.00
2023-03-02T19:04:04.926Z,8.15
2023-03-02T19:06:32.528Z,8.45
2023-03-02T19:08:59.165Z,7.75
2023-03-02T19:11:25.868Z,14.20
2023-03-02T19:13:52.469Z,10.30
2023-03-02T19:16:19.231Z,8.68
2023-03-02T19:18:46.031Z,8.57
2023-03-02T19:21:12.690Z,12.02
2023-03-02T19:23:39.339Z,10.07
2023-03-02T19:26:06.758Z,8.82
2023-03-02T19:28:34.444Z,13.55
2023-03-02T19:31:08.718Z,26.13
2023-03-02T19:33:35.716Z,9.20
2023-03-02T19:36:02.470Z,9.25
2023-03-02T19:38:29.215Z,10.57
2023-03-02T19:40:58.079Z,7.57
2023-03-02T19:43:25.167Z,10.37
2023-03-02T19:45:52.642Z,8.48
2023-03-02T19:48:20.000Z,8.02
2023-03-02T19:50:46.857Z,11.77
2023-03-02T19:53:14.039Z,10.48
2023-03-02T19:55:42.456Z,12.98
2023-03-02T19:58:11.032Z,7.65
2023-03-02T20:00:38.807Z,11.00
2023-03-02T20:03:06.152Z,10.82
2023-03-02T20:05:32.843Z,6.97
2023-03-02T20:07:59.508Z,10.48
2023-03-02T20:10:33.687Z,12.52
2023-03-02T20:13:00.953Z,9.02
2023-03-02T20:15:29.874Z,15.82
2023-03-02T20:17:58.293Z,11.70
2023-03-02T20:20:26.919Z,8.70
2023-03-02T20:22:53.624Z,14.35
2023-03-02T20:25:21.272Z,8.60
2023-03-02T20:27:49.083Z,12.02
2023-03-02T20:30:29.792Z,12.30
2023-03-02T20:32:57.157Z,9.60
2023-03-02T20:35:24.298Z,8.30
2023-03-02T20:37:52.090Z,11.27
2023-03-02T20:40:19.102Z,11.18
2023-03-02T20:42:45.808Z,9.65
2023-03-02T20:45:12.877Z,11.60
2023-03-02T20:47:40.340Z,14.30
2023-03-02T20:50:11.240Z,12.52
2023-03-02T20:52:38.285Z,13.98
2023-03-02T20:55:06.764Z,12.90
2023-03-02T20:57:33.834Z,12.13
2023-03-02T21:00:01.040Z,12.45
2023-03-02T21:02:27.701Z,14.43
2023-03-02T21:04:54.526Z,12.73
2023-03-02T21:07:21.417Z,13.23
2023-03-02T21:09:48.128Z,11.85
2023-03-02T21:12:14.784Z,13.85
2023-03-02T21:14:41.533Z,12.40
2023-03-02T21:17:09.088Z,13.13
2023-03-02T21:19:35.719Z,13.18
2023-03-02T21:22:02.355Z,11.38
2023-03-02T21:24:29.104Z,17.55
2023-03-02T21:26:55.932Z,14.23
2023-03-02T21:29:24.837Z,12.13
2023-03-02T21:31:51.611Z,13.73
2023-03-02T21:34:22.230Z,11.18
2023-03-02T21:36:53.009Z,14.00
2023-03-02T21:39:23.516Z,12.85
2023-03-02T21:41:50.587Z,14.18
2023-03-02T21:44:17.257Z,15.38
2023-03-02T21:46:44.215Z,23.90
2023-03-02T21:49:15.129Z,17.73
2023-03-02T21:51:41.985Z,15.38
2023-03-02T21:54:09.113Z,13.25
2023-03-02T21:56:35.741Z,14.63
2023-03-02T21:59:04.050Z,16.45
2023-03-02T22:01:32.688Z,17.65
2023-03-02T22:04:00.708Z,22.07
2023-03-02T22:06:30.301Z,17.70
2023-03-02T22:08:57.776Z,15.73
2023-03-02T22:11:27.305Z,12.75
2023-03-02T22:13:58.982Z,16.40
2023-03-02T22:16:28.152Z,14.82
2023-03-02T22:18:57.456Z,15.30
2023-03-02T22:21:30.207Z,15.25
2023-03-02T22:24:09.580Z,14.93
2023-03-02T22:26:49.347Z,15.98
2023-03-02T22:32:00.376Z,16.77
2023-03-02T22:34:30.306Z,18.35
2023-03-02T22:37:22.858Z,16.10
2023-03-02T22:39:53.712Z,16.88
2023-03-02T22:42:23.093Z,18.92
2023-03-02T22:45:12.709Z,17.13
2023-03-02T22:47:39.407Z,15.80
2023-03-02T22:50:20.756Z,19.35
2023-03-02T22:52:47.641Z,23.80
2023-03-02T22:55:35.248Z,20.90
2023-03-02T22:58:27.897Z,18.17
2023-03-02T23:00:54.813Z,16.45
2023-03-02T23:03:37.059Z,18.20
2023-03-02T23:06:24.484Z,24.30
2023-03-02T23:08:52.969Z,17.13
2023-03-02T23:11:21.357Z,20.90
2023-03-02T23:13:49.437Z,19.83
2023-03-02T23:16:27.657Z,21.98
2023-03-02T23:18:59.105Z,21.92
2023-03-02T23:21:38.736Z,20.42
2023-03-02T23:24:07.398Z,20.80
2023-03-02T23:26:34.667Z,22.02
2023-03-02T23:29:01.505Z,16.77
2023-03-02T23:31:28.314Z,22.00
2023-03-02T23:33:54.994Z,20.20
2023-03-02T23:36:21.647Z,20.15
2023-03-02T23:38:49.486Z,23.40
2023-03-02T23:41:16.672Z,24.75
2023-03-02T23:43:43.298Z,20.20
2023-03-02T23:46:13.881Z,25.42
2023-03-02T23:48:44.344Z,22.77
2023-03-02T23:51:11.028Z,20.10
2023-03-02T23:53:37.823Z,21.35
2023-03-02T23:56:04.774Z,21.58
2023-03-02T23:58:31.451Z,22.50
